sensor_id;sensor_type;location;lat;lon;timestamp;P1;durP1;ratioP1;P2;durP2;ratioP2
46334;SDS011;32051;48.882;9.210;2023-05-23T00:00:56;31.25;;;20.27;;
46334;SDS011;32051;48.882;9.210;2023-05-23T00:03:22;30.75;;;19.42;;
46334;SDS011;32051;48.882;9.210;2023-05-23T00:05:48;32.50;;;21.35;;
46334;SDS011;32051;48.882;9.210;2023-05-23T00:08:15;28.27;;;20.40;;
46334;SDS011;32051;48.882;9.210;2023-05-23T00:10:41;31.60;;;21.15;;
46334;SDS011;32051;48.882;9.210;2023-05-23T00:13:08;40.80;;;24.20;;
46334;SDS011;32051;48.882;9.210;2023-05-23T00:15:36;41.67;;;24.30;;
46334;SDS011;32051;48.882;9.210;2023-05-23T00:18:03;49.35;;;26.50;;
46334;SDS011;32051;48.882;9.210;2023-05-23T00:20:29;44.67;;;26.60;;
46334;SDS011;32051;48.882;9.210;2023-05-23T00:22:56;50.28;;;26.95;;
46334;SDS011;32051;48.882;9.210;2023-05-23T00:25:23;49.55;;;28.25;;
46334;SDS011;32051;48.882;9.210;2023-05-23T00:27:50;50.83;;;29.90;;
46334;SDS011;32051;48.882;9.210;2023-05-23T00:30:16;73.72;;;30.10;;
46334;SDS011;32051;48.882;9.210;2023-05-23T00:32:43;58.92;;;31.17;;
46334;SDS011;32051;48.882;9.210;2023-05-23T00:35:09;54.50;;;31.10;;
46334;SDS011;32051;48.882;9.210;2023-05-23T00:37:35;54.28;;;31.38;;
46334;SDS011;32051;48.882;9.210;2023-05-23T00:40:02;61.10;;;31.35;;
46334;SDS011;32051;48.882;9.210;2023-05-23T00:42:28;65.82;;;34.70;;
46334;SDS011;32051;48.882;9.210;2023-05-23T00:44:56;63.80;;;33.97;;
46334;SDS011;32051;48.882;9.210;2023-05-23T00:47:22;62.72;;;33.17;;
46334;SDS011;32051;48.882;9.210;2023-05-23T00:49:48;63.47;;;33.30;;
46334;SDS011;32051;48.882;9.210;2023-05-23T00:52:14;60.45;;;32.95;;
46334;SDS011;32051;48.882;9.210;2023-05-23T00:54:41;68.80;;;32.95;;
46334;SDS011;32051;48.882;9.210;2023-05-23T00:57:07;76.90;;;36.20;;
46334;SDS011;32051;48.882;9.210;2023-05-23T00:59:33;68.30;;;35.85;;
46334;SDS011;32051;48.882;9.210;2023-05-23T01:02:01;61.95;;;34.38;;
46334;SDS011;32051;48.882;9.210;2023-05-23T01:04:27;75.55;;;36.38;;
46334;SDS011;32051;48.882;9.210;2023-05-23T01:06:54;74.63;;;37.53;;
46334;SDS011;32051;48.882;9.210;2023-05-23T01:09:20;71.15;;;35.75;;
46334;SDS011;32051;48.882;9.210;2023-05-23T01:11:49;73.82;;;36.63;;
46334;SDS011;32051;48.882;9.210;2023-05-23T01:14:18;76.22;;;38.17;;
46334;SDS011;32051;48.882;9.210;2023-05-23T01:16:59;72.57;;;36.92;;
46334;SDS011;32051;48.882;9.210;2023-05-23T01:19:46;77.10;;;37.20;;
46334;SDS011;32051;48.882;9.210;2023-05-23T01:22:20;77.90;;;39.03;;
46334;SDS011;32051;48.882;9.210;2023-05-23T01:24:54;62.90;;;36.95;;
46334;SDS011;32051;48.882;9.210;2023-05-23T01:27:23;82.00;;;40.75;;
46334;SDS011;32051;48.882;9.210;2023-05-23T01:29:56;84.72;;;39.72;;
46334;SDS011;32051;48.882;9.210;2023-05-23T01:32:24;72.00;;;40.60;;
46334;SDS011;32051;48.882;9.210;2023-05-23T01:34:51;74.35;;;39.55;;
46334;SDS011;32051;48.882;9.210;2023-05-23T01:37:18;73.57;;;37.97;;
46334;SDS011;32051;48.882;9.210;2023-05-23T01:39:46;81.82;;;42.97;;
46334;SDS011;32051;48.882;9.210;2023-05-23T01:42:13;72.85;;;41.83;;
46334;SDS011;32051;48.882;9.210;2023-05-23T01:44:39;75.32;;;38.38;;
46334;SDS011;32051;48.882;9.210;2023-05-23T01:47:07;79.07;;;42.00;;
46334;SDS011;32051;48.882;9.210;2023-05-23T01:49:34;91.80;;;44.90;;
46334;SDS011;32051;48.882;9.210;2023-05-23T01:52:01;84.05;;;43.83;;
46334;SDS011;32051;48.882;9.210;2023-05-23T01:54:28;81.38;;;43.03;;
46334;SDS011;32051;48.882;9.210;2023-05-23T01:56:57;88.85;;;43.35;;
46334;SDS011;32051;48.882;9.210;2023-05-23T01:59:24;82.18;;;41.88;;
46334;SDS011;32051;48.882;9.210;2023-05-23T02:01:50;84.90;;;46.00;;
46334;SDS011;32051;48.882;9.210;2023-05-23T02:04:17;80.00;;;44.22;;
46334;SDS011;32051;48.882;9.210;2023-05-23T02:06:43;91.03;;;45.65;;
46334;SDS011;32051;48.882;9.210;2023-05-23T02:09:11;91.82;;;45.17;;
46334;SDS011;32051;48.882;9.210;2023-05-23T02:11:37;93.15;;;45.35;;
46334;SDS011;32051;48.882;9.210;2023-05-23T02:14:04;77.90;;;44.92;;
46334;SDS011;32051;48.882;9.210;2023-05-23T02:16:30;74.90;;;42.17;;
46334;SDS011;32051;48.882;9.210;2023-05-23T02:18:57;86.15;;;46.22;;
46334;SDS011;32051;48.882;9.210;2023-05-23T02:21:23;87.05;;;47.38;;
46334;SDS011;32051;48.882;9.210;2023-05-23T02:23:50;88.10;;;46.33;;
46334;SDS011;32051;48.882;9.210;2023-05-23T02:26:16;86.88;;;46.22;;
46334;SDS011;32051;48.882;9.210;2023-05-23T02:28:42;94.78;;;47.65;;
46334;SDS011;32051;48.882;9.210;2023-05-23T02:31:09;86.45;;;46.30;;
46334;SDS011;32051;48.882;9.210;2023-05-23T02:33:36;90.82;;;46.60;;
46334;SDS011;32051;48.882;9.210;2023-05-23T02:36:02;87.68;;;45.88;;
46334;SDS011;32051;48.882;9.210;2023-05-23T02:38:28;86.95;;;46.72;;
46334;SDS011;32051;48.882;9.210;2023-05-23T02:40:55;87.53;;;45.38;;
46334;SDS011;32051;48.882;9.210;2023-05-23T02:43:22;88.95;;;44.78;;
46334;SDS011;32051;48.882;9.210;2023-05-23T02:45:48;80.50;;;45.30;;
46334;SDS011;32051;48.882;9.210;2023-05-23T02:48:14;89.03;;;45.08;;
46334;SDS011;32051;48.882;9.210;2023-05-23T02:50:40;80.07;;;43.42;;
46334;SDS011;32051;48.882;9.210;2023-05-23T02:53:07;87.25;;;45.60;;
46334;SDS011;32051;48.882;9.210;2023-05-23T02:55:33;79.38;;;45.80;;
46334;SDS011;32051;48.882;9.210;2023-05-23T02:57:59;79.13;;;44.03;;
46334;SDS011;32051;48.882;9.210;2023-05-23T03:00:25;86.82;;;46.10;;
46334;SDS011;32051;48.882;9.210;2023-05-23T03:02:54;76.82;;;44.08;;
46334;SDS011;32051;48.882;9.210;2023-05-23T03:05:21;81.47;;;45.47;;
46334;SDS011;32051;48.882;9.210;2023-05-23T03:07:47;74.68;;;42.00;;
46334;SDS011;32051;48.882;9.210;2023-05-23T03:10:13;72.22;;;44.22;;
46334;SDS011;32051;48.882;9.210;2023-05-23T03:12:39;69.88;;;42.92;;
46334;SDS011;32051;48.882;9.210;2023-05-23T03:15:06;73.00;;;41.97;;
46334;SDS011;32051;48.882;9.210;2023-05-23T03:17:35;80.20;;;45.25;;
46334;SDS011;32051;48.882;9.210;2023-05-23T03:20:01;78.13;;;45.42;;
46334;SDS011;32051;48.882;9.210;2023-05-23T03:22:28;74.30;;;43.13;;
46334;SDS011;32051;48.882;9.210;2023-05-23T03:24:54;75.65;;;43.20;;
46334;SDS011;32051;48.882;9.210;2023-05-23T03:27:21;78.80;;;46.42;;
46334;SDS011;32051;48.882;9.210;2023-05-23T03:29:47;72.03;;;43.08;;
46334;SDS011;32051;48.882;9.210;2023-05-23T03:32:13;74.60;;;44.88;;
46334;SDS011;32051;48.882;9.210;2023-05-23T03:34:39;68.63;;;40.45;;
46334;SDS011;32051;48.882;9.210;2023-05-23T03:37:05;79.45;;;43.97;;
46334;SDS011;32051;48.882;9.210;2023-05-23T03:39:31;74.05;;;46.15;;
46334;SDS011;32051;48.882;9.210;2023-05-23T03:41:57;70.53;;;40.67;;
46334;SDS011;32051;48.882;9.210;2023-05-23T03:44:23;73.40;;;43.25;;
46334;SDS011;32051;48.882;9.210;2023-05-23T03:46:50;74.57;;;43.05;;
46334;SDS011;32051;48.882;9.210;2023-05-23T03:49:16;67.53;;;41.47;;
46334;SDS011;32051;48.882;9.210;2023-05-23T03:51:42;80.60;;;41.67;;
46334;SDS011;32051;48.882;9.210;2023-05-23T03:54:12;71.53;;;41.70;;
46334;SDS011;32051;48.882;9.210;2023-05-23T03:56:39;64.22;;;41.25;;
46334;SDS011;32051;48.882;9.210;2023-05-23T03:59:05;79.25;;;41.83;;
46334;SDS011;32051;48.882;9.210;2023-05-23T04:01:31;71.45;;;40.63;;
46334;SDS011;32051;48.882;9.210;2023-05-23T04:03:57;67.65;;;40.70;;
46334;SDS011;32051;48.882;9.210;2023-05-23T04:06:25;63.60;;;40.15;;
46334;SDS011;32051;48.882;9.210;2023-05-23T04:08:55;67.18;;;40.70;;
46334;SDS011;32051;48.882;9.210;2023-05-23T04:11:21;63.20;;;41.50;;
46334;SDS011;32051;48.882;9.210;2023-05-23T04:13:49;69.82;;;39.58;;
46334;SDS011;32051;48.882;9.210;2023-05-23T04:16:16;60.08;;;38.33;;
46334;SDS011;32051;48.882;9.210;2023-05-23T04:18:42;65.13;;;39.13;;
46334;SDS011;32051;48.882;9.210;2023-05-23T04:21:11;59.72;;;37.30;;
46334;SDS011;32051;48.882;9.210;2023-05-23T04:23:47;62.00;;;38.08;;
46334;SDS011;32051;48.882;9.210;2023-05-23T04:26:13;68.05;;;38.17;;
46334;SDS011;32051;48.882;9.210;2023-05-23T04:28:46;58.47;;;36.60;;
46334;SDS011;32051;48.882;9.210;2023-05-23T04:31:13;62.05;;;37.35;;
46334;SDS011;32051;48.882;9.210;2023-05-23T04:33:40;57.88;;;36.72;;
46334;SDS011;32051;48.882;9.210;2023-05-23T04:36:07;59.83;;;36.17;;
46334;SDS011;32051;48.882;9.210;2023-05-23T04:38:34;60.72;;;35.45;;
46334;SDS011;32051;48.882;9.210;2023-05-23T04:41:06;56.03;;;36.50;;
46334;SDS011;32051;48.882;9.210;2023-05-23T04:43:58;61.63;;;35.90;;
46334;SDS011;32051;48.882;9.210;2023-05-23T04:46:51;64.30;;;37.75;;
46334;SDS011;32051;48.882;9.210;2023-05-23T04:49:37;58.00;;;35.53;;
46334;SDS011;32051;48.882;9.210;2023-05-23T04:52:04;60.78;;;36.42;;
46334;SDS011;32051;48.882;9.210;2023-05-23T04:54:31;54.13;;;34.20;;
46334;SDS011;32051;48.882;9.210;2023-05-23T04:57:00;53.70;;;34.25;;
46334;SDS011;32051;48.882;9.210;2023-05-23T04:59:27;56.97;;;35.10;;
46334;SDS011;32051;48.882;9.210;2023-05-23T05:01:54;51.00;;;33.92;;
46334;SDS011;32051;48.882;9.210;2023-05-23T05:04:20;51.05;;;35.03;;
46334;SDS011;32051;48.882;9.210;2023-05-23T05:06:47;56.45;;;34.75;;
46334;SDS011;32051;48.882;9.210;2023-05-23T05:09:14;48.00;;;35.00;;
46334;SDS011;32051;48.882;9.210;2023-05-23T05:11:42;57.35;;;34.50;;
46334;SDS011;32051;48.882;9.210;2023-05-23T05:14:08;56.50;;;34.17;;
46334;SDS011;32051;48.882;9.210;2023-05-23T05:16:35;52.45;;;33.30;;
46334;SDS011;32051;48.882;9.210;2023-05-23T05:19:02;47.67;;;32.88;;
46334;SDS011;32051;48.882;9.210;2023-05-23T05:21:29;52.22;;;30.67;;
46334;SDS011;32051;48.882;9.210;2023-05-23T05:23:57;51.15;;;31.20;;
46334;SDS011;32051;48.882;9.210;2023-05-23T05:26:24;49.90;;;32.55;;
46334;SDS011;32051;48.882;9.210;2023-05-23T05:28:52;57.42;;;34.20;;
46334;SDS011;32051;48.882;9.210;2023-05-23T05:31:19;48.33;;;31.52;;
46334;SDS011;32051;48.882;9.210;2023-05-23T05:33:45;54.60;;;33.53;;
46334;SDS011;32051;48.882;9.210;2023-05-23T05:36:13;45.40;;;31.58;;
46334;SDS011;32051;48.882;9.210;2023-05-23T05:38:40;48.55;;;31.67;;
46334;SDS011;32051;48.882;9.210;2023-05-23T05:41:06;47.40;;;31.15;;
46334;SDS011;32051;48.882;9.210;2023-05-23T05:43:34;48.55;;;31.65;;
46334;SDS011;32051;48.882;9.210;2023-05-23T05:46:01;45.15;;;30.70;;
46334;SDS011;32051;48.882;9.210;2023-05-23T05:48:27;49.22;;;30.05;;
46334;SDS011;32051;48.882;9.210;2023-05-23T05:50:55;41.95;;;30.17;;
46334;SDS011;32051;48.882;9.210;2023-05-23T05:53:25;49.08;;;31.35;;
46334;SDS011;32051;48.882;9.210;2023-05-23T05:55:53;43.15;;;28.90;;
46334;SDS011;32051;48.882;9.210;2023-05-23T05:58:19;42.13;;;30.77;;
46334;SDS011;32051;48.882;9.210;2023-05-23T06:00:52;39.00;;;28.98;;
46334;SDS011;32051;48.882;9.210;2023-05-23T06:03:19;37.33;;;29.35;;
46334;SDS011;32051;48.882;9.210;2023-05-23T06:05:55;43.00;;;29.05;;
46334;SDS011;32051;48.882;9.210;2023-05-23T06:08:21;39.05;;;27.40;;
46334;SDS011;32051;48.882;9.210;2023-05-23T06:10:47;36.40;;;27.52;;
46334;SDS011;32051;48.882;9.210;2023-05-23T06:13:13;38.42;;;27.40;;
46334;SDS011;32051;48.882;9.210;2023-05-23T06:15:42;37.70;;;27.27;;
46334;SDS011;32051;48.882;9.210;2023-05-23T06:18:10;41.40;;;28.35;;
46334;SDS011;32051;48.882;9.210;2023-05-23T06:20:38;34.65;;;26.92;;
46334;SDS011;32051;48.882;9.210;2023-05-23T06:23:08;39.67;;;27.45;;
46334;SDS011;32051;48.882;9.210;2023-05-23T06:25:37;37.50;;;26.30;;
46334;SDS011;32051;48.882;9.210;2023-05-23T06:28:04;39.47;;;26.73;;
46334;SDS011;32051;48.882;9.210;2023-05-23T06:30:30;38.35;;;27.45;;
46334;SDS011;32051;48.882;9.210;2023-05-23T06:32:58;30.55;;;24.75;;
46334;SDS011;32051;48.882;9.210;2023-05-23T06:35:25;35.15;;;26.95;;
46334;SDS011;32051;48.882;9.210;2023-05-23T06:37:51;31.23;;;25.85;;
46334;SDS011;32051;48.882;9.210;2023-05-23T06:40:17;39.78;;;27.63;;
46334;SDS011;32051;48.882;9.210;2023-05-23T06:42:43;39.78;;;26.30;;
46334;SDS011;32051;48.882;9.210;2023-05-23T06:45:21;39.53;;;27.23;;
46334;SDS011;32051;48.882;9.210;2023-05-23T06:47:47;37.10;;;28.02;;
46334;SDS011;32051;48.882;9.210;2023-05-23T06:50:14;40.78;;;28.20;;
46334;SDS011;32051;48.882;9.210;2023-05-23T06:52:44;41.70;;;28.02;;
46334;SDS011;32051;48.882;9.210;2023-05-23T06:55:11;34.00;;;27.75;;
46334;SDS011;32051;48.882;9.210;2023-05-23T06:57:42;41.80;;;31.38;;
46334;SDS011;32051;48.882;9.210;2023-05-23T07:00:08;54.85;;;29.02;;
46334;SDS011;32051;48.882;9.210;2023-05-23T07:02:43;40.80;;;29.65;;
46334;SDS011;32051;48.882;9.210;2023-05-23T07:05:13;37.90;;;27.00;;
46334;SDS011;32051;48.882;9.210;2023-05-23T07:07:45;34.60;;;26.35;;
46334;SDS011;32051;48.882;9.210;2023-05-23T07:10:11;45.08;;;25.48;;
46334;SDS011;32051;48.882;9.210;2023-05-23T07:12:39;29.35;;;24.23;;
46334;SDS011;32051;48.882;9.210;2023-05-23T07:15:05;29.98;;;23.67;;
46334;SDS011;32051;48.882;9.210;2023-05-23T07:17:33;28.25;;;21.63;;
46334;SDS011;32051;48.882;9.210;2023-05-23T07:20:01;28.85;;;22.15;;
46334;SDS011;32051;48.882;9.210;2023-05-23T07:22:30;28.17;;;19.52;;
46334;SDS011;32051;48.882;9.210;2023-05-23T07:24:57;33.80;;;19.92;;
46334;SDS011;32051;48.882;9.210;2023-05-23T07:27:28;21.77;;;18.73;;
46334;SDS011;32051;48.882;9.210;2023-05-23T07:29:54;38.10;;;22.63;;
46334;SDS011;32051;48.882;9.210;2023-05-23T07:32:21;41.42;;;20.92;;
46334;SDS011;32051;48.882;9.210;2023-05-23T07:34:48;35.88;;;20.48;;
46334;SDS011;32051;48.882;9.210;2023-05-23T07:37:14;29.25;;;18.27;;
46334;SDS011;32051;48.882;9.210;2023-05-23T07:39:42;22.67;;;18.73;;
46334;SDS011;32051;48.882;9.210;2023-05-23T07:42:09;26.65;;;19.25;;
46334;SDS011;32051;48.882;9.210;2023-05-23T07:44:36;24.77;;;19.13;;
46334;SDS011;32051;48.882;9.210;2023-05-23T07:47:03;27.10;;;19.13;;
46334;SDS011;32051;48.882;9.210;2023-05-23T07:49:29;21.83;;;18.20;;
46334;SDS011;32051;48.882;9.210;2023-05-23T07:51:55;20.55;;;16.50;;
46334;SDS011;32051;48.882;9.210;2023-05-23T07:54:21;32.63;;;21.30;;
46334;SDS011;32051;48.882;9.210;2023-05-23T07:56:52;22.70;;;16.80;;
46334;SDS011;32051;48.882;9.210;2023-05-23T07:59:18;24.98;;;15.68;;
46334;SDS011;32051;48.882;9.210;2023-05-23T08:01:47;26.05;;;17.10;;
46334;SDS011;32051;48.882;9.210;2023-05-23T08:04:17;22.70;;;15.95;;
46334;SDS011;32051;48.882;9.210;2023-05-23T08:06:49;19.77;;;16.60;;
46334;SDS011;32051;48.882;9.210;2023-05-23T08:09:15;21.92;;;17.17;;
46334;SDS011;32051;48.882;9.210;2023-05-23T08:11:47;41.75;;;21.75;;
46334;SDS011;32051;48.882;9.210;2023-05-23T08:14:14;27.83;;;17.45;;
46334;SDS011;32051;48.882;9.210;2023-05-23T08:16:48;24.00;;;16.88;;
46334;SDS011;32051;48.882;9.210;2023-05-23T08:19:19;17.08;;;13.75;;
46334;SDS011;32051;48.882;9.210;2023-05-23T08:21:45;16.13;;;13.70;;
46334;SDS011;32051;48.882;9.210;2023-05-23T08:24:12;17.00;;;14.25;;
46334;SDS011;32051;48.882;9.210;2023-05-23T08:26:38;20.48;;;14.75;;
46334;SDS011;32051;48.882;9.210;2023-05-23T08:29:09;21.65;;;15.60;;
46334;SDS011;32051;48.882;9.210;2023-05-23T08:31:35;25.15;;;15.90;;
46334;SDS011;32051;48.882;9.210;2023-05-23T08:34:01;24.33;;;16.02;;
46334;SDS011;32051;48.882;9.210;2023-05-23T08:36:28;21.38;;;14.55;;
46334;SDS011;32051;48.882;9.210;2023-05-23T08:38:56;27.20;;;14.70;;
46334;SDS011;32051;48.882;9.210;2023-05-23T08:41:26;50.47;;;14.82;;
46334;SDS011;32051;48.882;9.210;2023-05-23T08:43:59;14.57;;;13.15;;
46334;SDS011;32051;48.882;9.210;2023-05-23T08:46:29;14.52;;;12.95;;
46334;SDS011;32051;48.882;9.210;2023-05-23T08:48:58;17.98;;;13.82;;
46334;SDS011;32051;48.882;9.210;2023-05-23T08:51:26;19.17;;;13.60;;
46334;SDS011;32051;48.882;9.210;2023-05-23T08:53:55;20.33;;;13.10;;
46334;SDS011;32051;48.882;9.210;2023-05-23T08:56:23;17.17;;;12.85;;
46334;SDS011;32051;48.882;9.210;2023-05-23T08:58:51;20.05;;;12.63;;
46334;SDS011;32051;48.882;9.210;2023-05-23T09:01:19;18.73;;;13.15;;
46334;SDS011;32051;48.882;9.210;2023-05-23T09:03:49;17.77;;;11.43;;
46334;SDS011;32051;48.882;9.210;2023-05-23T09:06:35;13.45;;;12.13;;
46334;SDS011;32051;48.882;9.210;2023-05-23T09:09:02;19.83;;;12.77;;
46334;SDS011;32051;48.882;9.210;2023-05-23T09:11:28;15.70;;;12.43;;
46334;SDS011;32051;48.882;9.210;2023-05-23T09:13:56;15.18;;;11.88;;
46334;SDS011;32051;48.882;9.210;2023-05-23T09:16:22;12.15;;;10.90;;
46334;SDS011;32051;48.882;9.210;2023-05-23T09:18:53;13.55;;;12.27;;
46334;SDS011;32051;48.882;9.210;2023-05-23T09:21:20;18.88;;;12.10;;
46334;SDS011;32051;48.882;9.210;2023-05-23T09:24:02;14.45;;;11.50;;
46334;SDS011;32051;48.882;9.210;2023-05-23T09:26:28;12.43;;;11.27;;
46334;SDS011;32051;48.882;9.210;2023-05-23T09:28:57;13.05;;;11.82;;
46334;SDS011;32051;48.882;9.210;2023-05-23T09:31:27;19.42;;;12.13;;
46334;SDS011;32051;48.882;9.210;2023-05-23T09:33:55;17.70;;;12.27;;
46334;SDS011;32051;48.882;9.210;2023-05-23T09:36:26;14.77;;;11.70;;
46334;SDS011;32051;48.882;9.210;2023-05-23T09:39:02;15.48;;;11.35;;
46334;SDS011;32051;48.882;9.210;2023-05-23T09:41:32;21.55;;;11.82;;
46334;SDS011;32051;48.882;9.210;2023-05-23T09:43:59;12.82;;;11.70;;
46334;SDS011;32051;48.882;9.210;2023-05-23T09:46:29;20.00;;;11.88;;
46334;SDS011;32051;48.882;9.210;2023-05-23T09:48:56;13.07;;;10.82;;
46334;SDS011;32051;48.882;9.210;2023-05-23T09:51:24;10.48;;;9.68;;
46334;SDS011;32051;48.882;9.210;2023-05-23T09:53:50;11.02;;;9.93;;
46334;SDS011;32051;48.882;9.210;2023-05-23T09:56:17;11.70;;;10.50;;
46334;SDS011;32051;48.882;9.210;2023-05-23T09:58:46;11.13;;;9.82;;
46334;SDS011;32051;48.882;9.210;2023-05-23T10:01:13;16.30;;;10.00;;
46334;SDS011;32051;48.882;9.210;2023-05-23T10:08:55;10.93;;;8.95;;
46334;SDS011;32051;48.882;9.210;2023-05-23T10:13:51;16.88;;;8.65;;
46334;SDS011;32051;48.882;9.210;2023-05-23T10:18:43;10.07;;;9.07;;
46334;SDS011;32051;48.882;9.210;2023-05-23T10:21:18;10.23;;;9.23;;
46334;SDS011;32051;48.882;9.210;2023-05-23T10:23:45;9.30;;;8.50;;
46334;SDS011;32051;48.882;9.210;2023-05-23T10:26:12;9.32;;;8.52;;
46334;SDS011;32051;48.882;9.210;2023-05-23T10:28:41;9.80;;;8.80;;
46334;SDS011;32051;48.882;9.210;2023-05-23T10:31:07;9.18;;;8.43;;
46334;SDS011;32051;48.882;9.210;2023-05-23T10:33:35;9.02;;;8.00;;
46334;SDS011;32051;48.882;9.210;2023-05-23T10:36:07;9.27;;;8.57;;
46334;SDS011;32051;48.882;9.210;2023-05-23T10:46:54;7.32;;;6.28;;
46334;SDS011;32051;48.882;9.210;2023-05-23T10:49:47;7.85;;;7.35;;
46334;SDS011;32051;48.882;9.210;2023-05-23T10:52:16;7.40;;;6.80;;
46334;SDS011;32051;48.882;9.210;2023-05-23T10:57:09;8.75;;;6.38;;
46334;SDS011;32051;48.882;9.210;2023-05-23T10:59:39;6.85;;;6.32;;
46334;SDS011;32051;48.882;9.210;2023-05-23T11:02:11;6.35;;;5.78;;
46334;SDS011;32051;48.882;9.210;2023-05-23T11:04:39;6.45;;;5.97;;
46334;SDS011;32051;48.882;9.210;2023-05-23T11:07:08;9.00;;;6.25;;
46334;SDS011;32051;48.882;9.210;2023-05-23T11:10:11;6.15;;;5.55;;
46334;SDS011;32051;48.882;9.210;2023-05-23T11:12:42;5.30;;;4.97;;
46334;SDS011;32051;48.882;9.210;2023-05-23T11:17:49;5.43;;;5.03;;
46334;SDS011;32051;48.882;9.210;2023-05-23T11:20:15;4.80;;;4.40;;
46334;SDS011;32051;48.882;9.210;2023-05-23T11:22:53;5.47;;;5.07;;
46334;SDS011;32051;48.882;9.210;2023-05-23T11:25:19;5.53;;;5.22;;
46334;SDS011;32051;48.882;9.210;2023-05-23T11:27:47;4.88;;;4.43;;
46334;SDS011;32051;48.882;9.210;2023-05-23T11:30:15;5.05;;;4.65;;
46334;SDS011;32051;48.882;9.210;2023-05-23T11:32:41;5.38;;;4.97;;
46334;SDS011;32051;48.882;9.210;2023-05-23T11:35:14;5.30;;;4.78;;
46334;SDS011;32051;48.882;9.210;2023-05-23T11:37:40;7.95;;;6.07;;
46334;SDS011;32051;48.882;9.210;2023-05-23T11:42:53;10.18;;;6.38;;
46334;SDS011;32051;48.882;9.210;2023-05-23T11:45:19;6.40;;;5.90;;
46334;SDS011;32051;48.882;9.210;2023-05-23T11:47:45;6.50;;;6.10;;
46334;SDS011;32051;48.882;9.210;2023-05-23T11:50:11;6.18;;;5.78;;
46334;SDS011;32051;48.882;9.210;2023-05-23T11:52:37;6.90;;;6.40;;
46334;SDS011;32051;48.882;9.210;2023-05-23T11:55:03;6.30;;;5.80;;
46334;SDS011;32051;48.882;9.210;2023-05-23T11:57:31;6.45;;;6.05;;
46334;SDS011;32051;48.882;9.210;2023-05-23T11:59:57;8.30;;;5.75;;
46334;SDS011;32051;48.882;9.210;2023-05-23T12:02:24;5.55;;;5.07;;
46334;SDS011;32051;48.882;9.210;2023-05-23T12:04:52;4.72;;;4.43;;
46334;SDS011;32051;48.882;9.210;2023-05-23T12:07:19;4.85;;;4.55;;
46334;SDS011;32051;48.882;9.210;2023-05-23T12:09:45;7.38;;;4.43;;
46334;SDS011;32051;48.882;9.210;2023-05-23T12:12:12;5.43;;;4.93;;
46334;SDS011;32051;48.882;9.210;2023-05-23T12:14:38;4.47;;;4.18;;
46334;SDS011;32051;48.882;9.210;2023-05-23T12:17:11;6.15;;;5.72;;
46334;SDS011;32051;48.882;9.210;2023-05-23T12:19:38;6.47;;;5.68;;
46334;SDS011;32051;48.882;9.210;2023-05-23T12:22:04;4.50;;;3.65;;
46334;SDS011;32051;48.882;9.210;2023-05-23T12:24:31;8.23;;;4.43;;
46334;SDS011;32051;48.882;9.210;2023-05-23T12:26:58;4.18;;;3.88;;
46334;SDS011;32051;48.882;9.210;2023-05-23T12:29:28;5.68;;;4.53;;
46334;SDS011;32051;48.882;9.210;2023-05-23T12:31:56;4.28;;;3.90;;
46334;SDS011;32051;48.882;9.210;2023-05-23T12:34:23;4.35;;;4.07;;
46334;SDS011;32051;48.882;9.210;2023-05-23T12:36:49;3.50;;;3.28;;
46334;SDS011;32051;48.882;9.210;2023-05-23T12:39:22;4.93;;;4.53;;
46334;SDS011;32051;48.882;9.210;2023-05-23T12:41:50;5.30;;;4.90;;
46334;SDS011;32051;48.882;9.210;2023-05-23T12:44:16;5.63;;;4.93;;
46334;SDS011;32051;48.882;9.210;2023-05-23T12:46:42;4.22;;;3.92;;
46334;SDS011;32051;48.882;9.210;2023-05-23T12:49:09;4.40;;;4.05;;
46334;SDS011;32051;48.882;9.210;2023-05-23T12:51:35;6.93;;;3.85;;
46334;SDS011;32051;48.882;9.210;2023-05-23T12:54:01;3.85;;;3.55;;
46334;SDS011;32051;48.882;9.210;2023-05-23T12:56:28;4.28;;;3.88;;
46334;SDS011;32051;48.882;9.210;2023-05-23T12:58:54;4.43;;;3.78;;
46334;SDS011;32051;48.882;9.210;2023-05-23T13:01:21;3.75;;;3.55;;
46334;SDS011;32051;48.882;9.210;2023-05-23T13:03:47;17.15;;;3.65;;
46334;SDS011;32051;48.882;9.210;2023-05-23T13:06:13;3.58;;;3.38;;
46334;SDS011;32051;48.882;9.210;2023-05-23T13:08:39;3.00;;;2.80;;
46334;SDS011;32051;48.882;9.210;2023-05-23T13:11:05;3.22;;;3.03;;
46334;SDS011;32051;48.882;9.210;2023-05-23T13:13:31;2.95;;;2.80;;
46334;SDS011;32051;48.882;9.210;2023-05-23T13:15:57;3.38;;;3.08;;
46334;SDS011;32051;48.882;9.210;2023-05-23T13:18:24;2.90;;;2.70;;
46334;SDS011;32051;48.882;9.210;2023-05-23T13:20:50;2.63;;;2.53;;
46334;SDS011;32051;48.882;9.210;2023-05-23T13:23:16;3.88;;;3.05;;
46334;SDS011;32051;48.882;9.210;2023-05-23T13:25:42;5.03;;;3.78;;
46334;SDS011;32051;48.882;9.210;2023-05-23T13:28:08;3.10;;;2.90;;
46334;SDS011;32051;48.882;9.210;2023-05-23T13:30:34;3.60;;;3.00;;
46334;SDS011;32051;48.882;9.210;2023-05-23T13:33:00;2.85;;;2.70;;
46334;SDS011;32051;48.882;9.210;2023-05-23T13:35:26;3.20;;;3.00;;
46334;SDS011;32051;48.882;9.210;2023-05-23T13:37:52;7.18;;;2.60;;
46334;SDS011;32051;48.882;9.210;2023-05-23T13:40:20;3.00;;;2.80;;
46334;SDS011;32051;48.882;9.210;2023-05-23T13:42:47;3.38;;;3.17;;
46334;SDS011;32051;48.882;9.210;2023-05-23T13:45:13;4.68;;;3.08;;
46334;SDS011;32051;48.882;9.210;2023-05-23T13:47:39;3.35;;;2.92;;
46334;SDS011;32051;48.882;9.210;2023-05-23T13:50:06;4.03;;;2.53;;
46334;SDS011;32051;48.882;9.210;2023-05-23T13:52:32;2.45;;;2.33;;
46334;SDS011;32051;48.882;9.210;2023-05-23T13:54:58;3.92;;;2.28;;
46334;SDS011;32051;48.882;9.210;2023-05-23T13:57:25;2.67;;;2.47;;
46334;SDS011;32051;48.882;9.210;2023-05-23T13:59:51;5.82;;;3.00;;
46334;SDS011;32051;48.882;9.210;2023-05-23T14:02:17;7.65;;;2.83;;
46334;SDS011;32051;48.882;9.210;2023-05-23T14:04:43;2.65;;;2.53;;
46334;SDS011;32051;48.882;9.210;2023-05-23T14:07:10;2.28;;;2.08;;
46334;SDS011;32051;48.882;9.210;2023-05-23T14:09:36;2.55;;;1.85;;
46334;SDS011;32051;48.882;9.210;2023-05-23T14:12:02;4.00;;;1.67;;
46334;SDS011;32051;48.882;9.210;2023-05-23T14:14:29;2.38;;;2.28;;
46334;SDS011;32051;48.882;9.210;2023-05-23T14:16:56;2.35;;;2.25;;
46334;SDS011;32051;48.882;9.210;2023-05-23T14:19:22;2.30;;;2.10;;
46334;SDS011;32051;48.882;9.210;2023-05-23T14:21:48;4.13;;;2.75;;
46334;SDS011;32051;48.882;9.210;2023-05-23T14:24:14;2.35;;;1.98;;
46334;SDS011;32051;48.882;9.210;2023-05-23T14:26:40;2.25;;;2.10;;
46334;SDS011;32051;48.882;9.210;2023-05-23T14:29:07;2.00;;;1.90;;
46334;SDS011;32051;48.882;9.210;2023-05-23T14:31:33;4.07;;;1.85;;
46334;SDS011;32051;48.882;9.210;2023-05-23T14:33:59;2.17;;;2.08;;
46334;SDS011;32051;48.882;9.210;2023-05-23T14:36:26;6.47;;;2.00;;
46334;SDS011;32051;48.882;9.210;2023-05-23T14:38:52;5.20;;;2.15;;
46334;SDS011;32051;48.882;9.210;2023-05-23T14:41:18;4.15;;;1.88;;
46334;SDS011;32051;48.882;9.210;2023-05-23T14:43:45;2.30;;;2.13;;
46334;SDS011;32051;48.882;9.210;2023-05-23T14:46:11;1.70;;;1.60;;
46334;SDS011;32051;48.882;9.210;2023-05-23T14:48:39;1.65;;;1.55;;
46334;SDS011;32051;48.882;9.210;2023-05-23T14:51:06;1.80;;;1.70;;
46334;SDS011;32051;48.882;9.210;2023-05-23T14:53:32;4.60;;;1.67;;
46334;SDS011;32051;48.882;9.210;2023-05-23T14:55:58;1.88;;;1.77;;
46334;SDS011;32051;48.882;9.210;2023-05-23T14:58:24;4.20;;;1.98;;